createdAt,value
2024-01-11T03:25:38.892Z,13.57
2024-01-11T03:29:44.429Z,13.50
2024-01-11T03:33:50.202Z,13.70
2024-01-11T03:37:56.117Z,12.90
2024-01-11T03:42:01.967Z,14.30
2024-01-11T03:46:07.573Z,18.93
2024-01-11T03:50:13.249Z,18.43
2024-01-11T03:54:18.847Z,20.80
2024-01-11T03:58:24.471Z,19.77
2024-01-11T04:02:30.069Z,22.00
2024-01-11T04:06:35.791Z,18.50
2024-01-11T04:10:41.458Z,23.83
2024-01-11T04:14:47.027Z,22.43
2024-01-11T04:18:52.645Z,23.90
2024-01-11T04:22:58.408Z,16.67
2024-01-11T04:27:04.947Z,13.77
2024-01-11T04:31:10.493Z,13.30
2024-01-11T04:35:16.165Z,8.77
2024-01-11T04:39:21.773Z,10.77
2024-01-11T04:43:27.286Z,21.30
2024-01-11T04:47:33.691Z,10.97
2024-01-11T04:51:39.304Z,11.00
2024-01-11T04:55:44.844Z,10.07
2024-01-11T04:59:50.415Z,8.83
2024-01-11T05:03:55.967Z,9.63
2024-01-11T05:08:01.552Z,9.80
2024-01-11T05:12:07.609Z,10.63
2024-01-11T05:16:23.762Z,9.90
2024-01-11T05:20:29.611Z,7.87
2024-01-11T05:24:35.305Z,9.20
2024-01-11T05:28:41.394Z,7.57
2024-01-11T05:32:47.071Z,7.37
2024-01-11T05:36:52.669Z,8.90
2024-01-11T05:40:58.251Z,7.97
2024-01-11T05:45:07.082Z,6.70
2024-01-11T05:49:12.848Z,10.20
2024-01-11T05:53:21.868Z,8.40
2024-01-11T05:57:27.640Z,6.30
2024-01-11T06:01:33.242Z,5.63
2024-01-11T06:05:39.207Z,7.30
2024-01-11T06:09:44.776Z,7.10
2024-01-11T06:13:50.284Z,7.50
2024-01-11T06:17:56.077Z,6.67
2024-01-11T06:22:01.763Z,9.50
2024-01-11T06:26:08.623Z,8.40
2024-01-11T06:30:14.982Z,9.00
2024-01-11T06:34:20.646Z,43.70
2024-01-11T06:38:26.455Z,9.57
2024-01-11T06:42:32.454Z,8.23
2024-01-11T06:46:40.219Z,8.13
2024-01-11T06:50:45.876Z,7.70
2024-01-11T06:54:51.577Z,7.80
2024-01-11T06:58:58.061Z,9.33
2024-01-11T07:03:04.432Z,7.50
2024-01-11T07:07:10.054Z,9.50
2024-01-11T07:11:15.615Z,6.43
2024-01-11T07:15:21.601Z,13.43
2024-01-11T07:19:31.662Z,11.20
2024-01-11T07:23:37.241Z,11.43
2024-01-11T07:27:42.866Z,9.73
2024-01-11T07:31:48.435Z,8.67
2024-01-11T07:35:53.997Z,8.30
2024-01-11T07:39:59.566Z,8.80
2024-01-11T07:44:05.210Z,12.87
2024-01-11T07:48:10.826Z,6.13
2024-01-11T07:52:18.517Z,9.40
2024-01-11T07:56:25.854Z,7.83
2024-01-11T08:00:31.426Z,5.20
2024-01-11T08:04:38.567Z,6.87
2024-01-11T08:08:45.253Z,7.87
2024-01-11T08:12:51.427Z,8.27
2024-01-11T08:16:57.299Z,6.70
2024-01-11T08:21:04.439Z,8.40
2024-01-11T08:25:10.854Z,7.90
2024-01-11T08:29:16.539Z,10.20
2024-01-11T08:33:22.407Z,8.07
2024-01-11T08:37:28.100Z,7.90
2024-01-11T08:41:34.722Z,9.70
2024-01-11T08:45:40.253Z,8.70
2024-01-11T08:49:45.972Z,8.10
2024-01-11T08:53:51.590Z,6.57
2024-01-11T08:57:57.965Z,8.10
2024-01-11T09:02:13.136Z,8.33
2024-01-11T09:06:21.487Z,6.50
2024-01-11T09:10:27.059Z,10.90
2024-01-11T09:14:32.576Z,10.00
2024-01-11T09:18:38.198Z,5.93
2024-01-11T09:22:43.798Z,6.27
2024-01-11T09:26:51.111Z,7.60
2024-01-11T09:31:01.474Z,7.43
2024-01-11T09:35:07.605Z,9.40
2024-01-11T09:39:14.775Z,7.37
2024-01-11T09:43:20.661Z,6.87
2024-01-11T09:47:27.565Z,11.30
2024-01-11T09:51:38.517Z,7.10
2024-01-11T09:55:44.373Z,8.23
2024-01-11T09:59:52.650Z,7.57
2024-01-11T10:08:04.349Z,6.50
2024-01-11T10:12:10.927Z,9.50
2024-01-11T10:41:01.444Z,10.13
2024-01-11T10:45:20.133Z,9.00
2024-01-11T10:49:29.143Z,7.03
2024-01-11T10:53:47.226Z,6.10
2024-01-11T10:57:54.136Z,13.00
2024-01-11T11:02:07.780Z,5.73
2024-01-11T11:06:14.461Z,11.07
2024-01-11T11:10:21.769Z,13.63
2024-01-11T11:14:29.397Z,8.83
2024-01-11T11:18:37.122Z,8.60
2024-01-11T11:22:44.426Z,5.00
2024-01-11T11:26:49.996Z,7.37
2024-01-11T11:30:57.145Z,6.10
2024-01-11T11:35:02.731Z,12.00
2024-01-11T11:39:12.827Z,8.43
2024-01-11T11:43:19.300Z,7.47
2024-01-11T11:47:25.574Z,12.00
2024-01-11T11:51:31.230Z,7.40
2024-01-11T11:55:37.068Z,7.20
2024-01-11T11:59:44.220Z,7.70
2024-01-11T12:03:52.983Z,10.33
2024-01-11T12:07:58.654Z,11.10
2024-01-11T12:12:11.649Z,5.33
2024-01-11T12:16:21.787Z,8.93
2024-01-11T12:20:27.334Z,12.30
2024-01-11T12:24:34.381Z,12.93
2024-01-11T12:28:41.904Z,9.10
2024-01-11T12:32:48.534Z,9.50
2024-01-11T12:37:01.583Z,6.83
2024-01-11T12:41:08.523Z,5.80
2024-01-11T12:45:14.560Z,5.73
2024-01-11T12:49:20.394Z,8.37
2024-01-11T12:53:27.090Z,7.77
2024-01-11T12:57:34.674Z,12.47
2024-01-11T13:01:40.994Z,7.50
2024-01-11T13:05:46.996Z,5.00
2024-01-11T13:09:52.581Z,8.70
2024-01-11T13:14:00.155Z,8.00
2024-01-11T13:18:06.432Z,8.03
2024-01-11T13:22:12.348Z,11.33
2024-01-11T13:26:17.902Z,13.83
2024-01-11T13:30:23.501Z,8.70
2024-01-11T13:34:29.106Z,8.57
2024-01-11T13:38:34.755Z,6.87
2024-01-11T13:42:40.308Z,10.77
2024-01-11T13:46:45.849Z,6.73
2024-01-11T13:50:51.473Z,9.73
2024-01-11T13:54:57.098Z,13.90
2024-01-11T13:59:02.960Z,10.20
2024-01-11T18:05:06.541Z,13.10
2024-01-11T18:09:12.384Z,7.80
2024-01-11T18:13:19.620Z,8.90
2024-01-11T18:17:25.121Z,7.10
2024-01-11T18:21:31.199Z,11.57
2024-01-11T18:25:36.732Z,9.50
2024-01-11T18:29:42.561Z,15.27
2024-01-11T18:33:51.128Z,22.93
2024-01-11T18:37:56.724Z,9.30
2024-01-11T18:42:03.216Z,9.00
2024-01-11T18:46:09.237Z,25.83
2024-01-11T18:50:14.832Z,29.33
2024-01-11T18:54:20.721Z,52.00
2024-01-11T18:58:30.662Z,38.50
2024-01-11T19:02:36.214Z,21.27
2024-01-11T19:06:41.901Z,13.17
2024-01-11T19:10:47.639Z,13.20
2024-01-11T19:14:53.294Z,8.90
2024-01-11T19:18:59.101Z,8.40
2024-01-11T19:23:04.837Z,11.73
2024-01-11T19:27:10.501Z,15.37
2024-01-11T19:31:18.157Z,13.57
2024-01-11T19:35:23.766Z,10.20
2024-01-11T19:39:29.264Z,6.93
2024-01-11T19:43:36.630Z,8.90
2024-01-11T19:47:43.002Z,12.77
2024-01-11T19:51:48.715Z,11.37
2024-01-11T19:55:54.253Z,17.93
2024-01-11T20:00:00.803Z,7.60
2024-01-11T20:04:07.013Z,13.63
2024-01-11T20:08:12.692Z,8.63
2024-01-11T20:12:18.315Z,10.37
2024-01-11T20:16:23.879Z,11.10
2024-01-11T20:20:29.528Z,8.73
2024-01-11T20:24:35.073Z,7.13
2024-01-11T20:28:40.630Z,12.77
2024-01-11T20:32:46.515Z,10.90
2024-01-11T20:36:52.477Z,11.60
2024-01-11T20:40:58.021Z,26.20
2024-01-11T20:45:04.165Z,12.60
2024-01-11T20:49:09.842Z,18.33
2024-01-11T20:53:15.525Z,19.87
2024-01-11T20:57:21.137Z,20.70
2024-01-11T21:01:26.742Z,23.87
2024-01-11T21:05:32.406Z,21.20
2024-01-11T21:09:38.528Z,16.83
2024-01-11T21:13:44.053Z,24.73
2024-01-11T21:17:49.879Z,20.40
2024-01-11T21:21:55.544Z,20.80
2024-01-11T21:26:01.250Z,19.93
2024-01-11T21:30:07.721Z,19.93
2024-01-11T21:34:13.324Z,23.83
2024-01-11T21:38:18.955Z,15.67
2024-01-11T21:42:24.703Z,19.73
2024-01-11T21:46:30.318Z,18.03
2024-01-11T21:50:35.993Z,17.20
2024-01-11T21:54:41.721Z,17.10
2024-01-11T21:58:47.269Z,24.20
2024-01-11T22:02:53.191Z,17.80
2024-01-11T22:06:59.097Z,13.37
2024-01-11T22:11:04.896Z,15.33
2024-01-11T22:15:11.516Z,16.47
2024-01-11T22:19:17.356Z,18.90
2024-01-11T22:23:23.053Z,18.17
2024-01-11T22:27:28.694Z,12.60
2024-01-11T22:31:37.810Z,10.63
2024-01-11T22:35:43.467Z,19.03
2024-01-11T22:39:49.002Z,55.40
2024-01-11T22:43:54.679Z,46.47
2024-01-11T22:48:00.298Z,19.03
2024-01-11T22:52:07.222Z,23.03
2024-01-11T22:56:13.181Z,44.87
2024-01-11T23:00:22.627Z,104.37
2024-01-11T23:04:30.555Z,36.37
2024-01-11T23:08:36.151Z,15.53
2024-01-11T23:12:43.613Z,29.13
2024-01-11T23:16:49.868Z,40.00
2024-01-11T23:20:55.521Z,47.10
2024-01-11T23:25:01.159Z,44.07
2024-01-11T23:29:06.829Z,54.40
2024-01-11T23:33:12.570Z,47.63
2024-01-11T23:37:18.281Z,54.60
2024-01-11T23:41:23.843Z,49.93
2024-01-11T23:45:29.373Z,35.83
2024-01-11T23:49:35.029Z,28.53
2024-01-11T23:53:40.816Z,26.83
2024-01-11T23:57:46.333Z,38.67
